createdAt,value
2022-09-03T00:15:05.304Z,12.40
2022-09-03T00:22:07.355Z,9.80
2022-09-03T00:38:10.940Z,5.90
2022-09-03T00:41:31.612Z,7.60
2022-09-03T00:49:10.044Z,6.00
2022-09-03T01:00:58.025Z,8.60
2022-09-03T01:17:22.125Z,5.70
2022-09-03T02:23:31.147Z,5.10
2022-09-03T02:26:04.715Z,6.70
2022-09-03T02:33:48.166Z,7.10
2022-09-03T02:40:42.682Z,7.20
2022-09-03T02:52:50.183Z,5.80
2022-09-03T02:55:51.844Z,9.50
2022-09-03T02:58:31.648Z,5.00
2022-09-03T03:05:59.248Z,7.50
2022-09-03T03:09:26.472Z,6.20
2022-09-03T03:11:58.744Z,8.00
2022-09-03T03:29:05.865Z,7.20
2022-09-03T03:36:13.774Z,7.00
2022-09-03T03:44:20.759Z,8.20
2022-09-03T03:47:01.899Z,7.90
2022-09-03T03:56:24.014Z,8.10
2022-09-03T03:59:00.294Z,8.70
2022-09-03T04:01:38.989Z,8.20
2022-09-03T04:04:11.597Z,8.30
2022-09-03T04:07:35.570Z,8.60
2022-09-03T04:28:50.501Z,11.60
2022-09-03T04:31:27.353Z,12.00
2022-09-03T04:34:06.610Z,9.30
2022-09-03T04:36:39.475Z,9.30
2022-09-03T04:39:13.762Z,11.30
2022-09-03T04:41:46.098Z,9.70
2022-09-03T04:44:41.353Z,14.70
2022-09-03T04:47:15.628Z,14.70
2022-09-03T04:55:45.416Z,13.10
2022-09-03T04:58:17.689Z,11.40
2022-09-03T05:00:50.241Z,15.00
2022-09-03T05:03:23.170Z,17.60
2022-09-03T05:05:59.477Z,16.00
2022-09-03T05:08:31.661Z,16.60
2022-09-03T05:11:04.102Z,16.70
2022-09-03T05:13:37.702Z,16.10
2022-09-03T05:16:13.295Z,20.60
2022-09-03T05:18:46.079Z,16.30
2022-09-03T05:21:19.916Z,16.10
2022-09-03T05:23:53.542Z,12.80
2022-09-03T05:26:30.322Z,12.90
2022-09-03T05:29:04.427Z,12.10
2022-09-03T05:31:39.107Z,12.60
2022-09-03T05:34:16.697Z,13.50
2022-09-03T05:36:51.157Z,12.30
2022-09-03T05:39:23.465Z,16.10
2022-09-03T05:41:55.858Z,15.10
2022-09-03T05:44:28.219Z,14.80
2022-09-03T05:47:00.511Z,14.70
2022-09-03T05:49:32.862Z,8.30
2022-09-03T05:52:05.342Z,6.80
2022-09-03T05:54:37.374Z,10.60
2022-09-03T05:57:09.619Z,9.30
2022-09-03T05:59:42.953Z,10.40
2022-09-03T06:02:15.427Z,12.40
2022-09-03T06:04:47.635Z,10.40
2022-09-03T06:07:21.103Z,13.70
2022-09-03T06:09:53.220Z,15.20
2022-09-03T06:12:25.380Z,11.10
2022-09-03T06:15:00.265Z,8.50
2022-09-03T06:17:34.877Z,9.50
2022-09-03T06:20:08.346Z,7.10
2022-09-03T06:22:40.919Z,9.10
2022-09-03T06:25:14.199Z,7.50
2022-09-03T06:27:52.340Z,16.00
2022-09-03T06:30:27.227Z,8.50
2022-09-03T06:32:59.542Z,10.50
2022-09-03T06:35:31.913Z,8.20
2022-09-03T06:38:13.981Z,13.90
2022-09-03T06:40:52.724Z,8.10
2022-09-03T06:43:26.560Z,9.10
2022-09-03T06:46:00.552Z,12.30
2022-09-03T06:48:34.440Z,13.50
2022-09-03T06:51:09.111Z,15.40
2022-09-03T06:53:44.253Z,17.90
2022-09-03T06:56:18.414Z,8.60
2022-09-03T06:58:50.763Z,7.10
2022-09-03T07:01:25.978Z,4.90
2022-09-03T07:04:01.387Z,9.20
2022-09-03T07:06:39.709Z,7.10
2022-09-03T07:09:13.363Z,9.00
2022-09-03T07:11:48.743Z,8.90
2022-09-03T07:14:24.829Z,7.10
2022-09-03T07:24:05.396Z,10.20
2022-09-03T07:26:39.435Z,6.10
2022-09-03T07:29:13.260Z,6.90
2022-09-03T07:31:45.893Z,10.10
2022-09-03T07:34:18.345Z,8.40
2022-09-03T07:36:51.907Z,7.90
2022-09-03T07:39:24.325Z,6.50
2022-09-03T07:41:58.341Z,15.10
2022-09-03T07:44:31.214Z,5.20
2022-09-03T07:47:07.042Z,15.20
2022-09-03T07:49:39.079Z,9.40
2022-09-03T07:52:11.908Z,8.10
2022-09-03T07:54:45.028Z,7.80
2022-09-03T07:57:17.211Z,7.40
2022-09-03T07:59:49.374Z,10.70
2022-09-03T08:02:21.714Z,9.10
2022-09-03T08:04:53.824Z,8.50
2022-09-03T08:07:25.914Z,9.90
2022-09-03T08:09:59.601Z,7.90
2022-09-03T08:12:32.334Z,10.80
2022-09-03T08:15:05.340Z,8.70
2022-09-03T08:17:37.378Z,7.70
2022-09-03T08:20:11.127Z,8.40
2022-09-03T08:22:44.604Z,7.70
2022-09-03T08:25:17.096Z,8.10
2022-09-03T08:27:49.425Z,11.50
2022-09-03T08:30:22.203Z,9.60
2022-09-03T08:38:48.298Z,14.20
2022-09-03T08:46:35.912Z,11.30
2022-09-03T08:49:09.157Z,11.60
2022-09-03T08:51:42.069Z,10.80
2022-09-03T08:55:26.349Z,9.50
2022-09-03T09:02:28.497Z,11.30
2022-09-03T09:10:12.795Z,9.60
2022-09-03T09:13:18.822Z,6.70
2022-09-03T09:16:02.423Z,12.20
2022-09-03T09:18:47.645Z,7.90
2022-09-03T09:21:27.664Z,9.30
2022-09-03T09:24:04.181Z,5.40
2022-09-03T09:26:36.594Z,5.60
2022-09-03T09:29:11.909Z,8.30
2022-09-03T09:31:45.223Z,8.10
2022-09-03T09:34:17.853Z,6.50
2022-09-03T09:36:54.290Z,8.20
2022-09-03T09:39:27.152Z,6.60
2022-09-03T09:42:09.615Z,6.90
2022-09-03T09:44:43.803Z,8.10
2022-09-03T09:47:26.683Z,7.60
2022-09-03T09:50:00.955Z,7.10
2022-09-03T09:52:33.726Z,11.10
2022-09-03T09:55:19.283Z,6.50
2022-09-03T09:57:54.460Z,7.90
2022-09-03T10:00:27.173Z,6.70
2022-09-03T10:02:59.415Z,7.90
2022-09-03T10:05:43.404Z,6.10
2022-09-03T10:08:38.099Z,7.50
2022-09-03T10:11:10.418Z,7.30
2022-09-03T10:22:21.429Z,5.50
2022-09-03T10:25:04.783Z,8.00
2022-09-03T10:27:37.350Z,4.70
2022-09-03T10:30:20.123Z,6.90
2022-09-03T10:33:06.782Z,10.00
2022-09-03T10:35:47.462Z,7.50
2022-09-03T10:38:27.738Z,7.80
2022-09-03T10:41:16.221Z,10.30
2022-09-03T10:56:36.601Z,7.60
2022-09-03T10:59:29.261Z,9.40
2022-09-03T11:02:42.348Z,5.90
2022-09-03T11:05:22.983Z,7.70
2022-09-03T11:08:00.314Z,9.80
2022-09-03T11:10:34.565Z,7.30
2022-09-03T11:21:44.757Z,7.20
2022-09-03T11:33:16.160Z,8.90
2022-09-03T11:45:51.826Z,8.60
2022-09-03T12:24:45.092Z,11.30
2022-09-03T12:27:26.355Z,7.00
2022-09-03T12:40:04.584Z,8.50
2022-09-03T12:47:37.915Z,7.10
2022-09-03T13:00:02.693Z,5.60
2022-09-03T13:18:24.946Z,9.40
2022-09-03T13:21:23.438Z,6.50
2022-09-03T13:28:27.819Z,7.10
2022-09-03T14:20:01.400Z,4.90
2022-09-03T14:27:07.677Z,6.80
2022-09-03T14:43:57.428Z,5.10
2022-09-03T14:59:57.380Z,4.20
2022-09-03T15:03:03.987Z,4.40
2022-09-03T15:06:03.860Z,5.40
2022-09-03T15:08:56.547Z,3.90
2022-09-03T15:11:33.344Z,4.70
2022-09-03T15:14:11.845Z,4.10
2022-09-03T15:16:59.948Z,6.60
2022-09-03T15:19:58.796Z,5.20
2022-09-03T15:22:57.991Z,4.20
2022-09-03T15:25:42.840Z,8.10
2022-09-03T15:28:24.394Z,7.80
2022-09-03T15:31:02.985Z,6.10
2022-09-03T15:33:41.276Z,5.20
2022-09-03T15:36:21.509Z,5.00
2022-09-03T15:39:00.684Z,4.50
2022-09-03T15:41:41.583Z,5.90
2022-09-03T15:44:19.638Z,9.00
2022-09-03T15:46:57.971Z,6.40
2022-09-03T15:49:53.176Z,5.80
2022-09-03T15:52:33.691Z,4.70
2022-09-03T15:55:12.973Z,8.10
2022-09-03T15:57:54.633Z,5.90
2022-09-03T16:00:30.340Z,8.50
2022-09-03T16:03:21.706Z,5.00
2022-09-03T16:09:07.519Z,5.90
2022-09-03T16:16:12.896Z,6.10
2022-09-03T16:18:56.751Z,7.20
2022-09-03T16:21:36.953Z,6.50
2022-09-03T16:24:19.368Z,5.50
2022-09-03T16:26:57.450Z,7.20
2022-09-03T16:29:32.248Z,5.70
2022-09-03T16:32:19.559Z,5.30
2022-09-03T16:35:04.640Z,5.20
2022-09-03T16:37:47.628Z,8.60
2022-09-03T16:40:29.197Z,7.00
2022-09-03T16:43:29.956Z,8.00
2022-09-03T16:46:12.282Z,13.20
2022-09-03T16:48:55.123Z,9.70
2022-09-03T16:51:34.892Z,10.30
2022-09-03T17:07:15.955Z,7.20
2022-09-03T17:13:46.030Z,7.30
2022-09-03T17:16:30.315Z,6.50
2022-09-03T17:19:14.532Z,7.00
2022-09-03T17:21:55.014Z,8.60
2022-09-03T17:24:48.763Z,8.40
2022-09-03T17:27:46.481Z,7.20
2022-09-03T17:30:32.302Z,6.70
2022-09-03T17:33:34.708Z,6.70
2022-09-03T17:36:15.962Z,5.70
2022-09-03T17:39:23.219Z,6.20
2022-09-03T17:41:57.776Z,5.90
2022-09-03T17:44:47.888Z,5.70
2022-09-03T17:47:43.548Z,5.70
2022-09-03T17:50:24.279Z,6.10
2022-09-03T17:53:02.076Z,7.00
2022-09-03T17:55:37.563Z,9.10
2022-09-03T17:58:15.452Z,7.90
2022-09-03T18:00:59.376Z,6.10
2022-09-03T18:03:37.429Z,7.30
2022-09-03T18:06:19.964Z,8.30
2022-09-03T18:08:58.014Z,6.60
2022-09-03T18:11:36.821Z,10.70
2022-09-03T18:14:18.226Z,8.20
2022-09-03T18:16:56.135Z,9.00
2022-09-03T18:19:55.657Z,12.00
2022-09-03T18:22:50.008Z,14.00
2022-09-03T18:25:45.364Z,10.60
2022-09-03T18:28:38.415Z,10.30
2022-09-03T18:31:35.456Z,13.10
2022-09-03T18:34:27.013Z,9.30
2022-09-03T18:37:19.875Z,12.20
2022-09-03T18:40:09.970Z,9.80
2022-09-03T18:43:12.859Z,14.40
2022-09-03T18:47:00.365Z,10.30
2022-09-03T18:49:34.716Z,10.10
2022-09-03T18:52:35.518Z,14.10
2022-09-03T18:55:34.237Z,14.10
2022-09-03T18:58:34.116Z,10.70
2022-09-03T19:01:30.324Z,12.60
2022-09-03T19:04:32.577Z,10.30
2022-09-03T19:07:28.105Z,12.20
2022-09-03T19:10:27.899Z,10.20
2022-09-03T19:13:36.014Z,13.20
2022-09-03T19:16:29.632Z,10.30
2022-09-03T19:19:29.811Z,13.00
2022-09-03T19:22:28.208Z,12.40
2022-09-03T19:25:22.776Z,12.60
2022-09-03T19:28:25.981Z,12.10
2022-09-03T19:31:30.688Z,12.90
2022-09-03T19:34:28.286Z,10.10
2022-09-03T19:37:26.028Z,13.20
2022-09-03T19:40:30.172Z,14.50
2022-09-03T19:43:36.796Z,13.30
2022-09-03T19:46:38.056Z,13.20
2022-09-03T19:49:39.079Z,13.90
2022-09-03T19:52:37.533Z,15.20
2022-09-03T19:55:31.426Z,16.60
2022-09-03T19:58:42.025Z,13.00
2022-09-03T20:01:31.821Z,15.70
2022-09-03T20:04:30.727Z,14.70
2022-09-03T20:07:23.316Z,15.10
2022-09-03T20:10:15.384Z,14.80
2022-09-03T20:12:51.646Z,15.80
2022-09-03T20:15:31.191Z,16.80
2022-09-03T20:18:12.512Z,14.50
2022-09-03T20:20:53.690Z,12.80
2022-09-03T20:23:35.817Z,13.00
2022-09-03T20:26:33.291Z,13.80
2022-09-03T20:29:39.035Z,15.90
2022-09-03T20:32:19.525Z,12.20
2022-09-03T20:35:00.470Z,12.60
2022-09-03T20:37:42.066Z,12.50
2022-09-03T20:40:29.039Z,11.90
2022-09-03T20:43:18.395Z,10.70
2022-09-03T20:46:07.361Z,12.30
2022-09-03T20:48:51.261Z,11.10
2022-09-03T20:51:28.872Z,16.00
2022-09-03T20:54:20.655Z,13.30
2022-09-03T20:57:06.890Z,15.80
2022-09-03T20:59:57.518Z,15.50
2022-09-03T21:02:39.509Z,14.10
2022-09-03T21:05:19.170Z,14.10
2022-09-03T21:08:04.747Z,11.30
2022-09-03T21:10:44.324Z,13.70
2022-09-03T21:13:26.050Z,14.10
2022-09-03T21:16:03.579Z,14.90
2022-09-03T21:18:41.725Z,12.00
2022-09-03T21:21:24.768Z,13.90
2022-09-03T21:24:06.183Z,13.80
2022-09-03T21:26:46.122Z,14.10
2022-09-03T21:29:26.721Z,15.70
2022-09-03T21:32:05.160Z,13.60
2022-09-03T21:34:43.014Z,17.20
2022-09-03T21:37:17.825Z,13.10
2022-09-03T21:39:56.300Z,12.30
2022-09-03T21:42:36.590Z,16.60
2022-09-03T21:45:15.789Z,14.40
2022-09-03T21:47:58.290Z,14.70
2022-09-03T21:50:37.159Z,14.10
2022-09-03T21:53:16.405Z,12.70
2022-09-03T21:56:04.452Z,16.70
2022-09-03T21:58:53.603Z,11.80
2022-09-03T22:01:34.359Z,13.20
2022-09-03T22:04:09.598Z,11.60
2022-09-03T22:06:51.502Z,11.60
2022-09-03T22:09:32.892Z,11.50
2022-09-03T22:12:13.542Z,12.70
2022-09-03T22:14:49.883Z,14.90
2022-09-03T22:17:28.929Z,12.40
2022-09-03T22:20:01.054Z,14.40
2022-09-03T22:22:40.834Z,11.40
2022-09-03T22:25:17.218Z,12.70
2022-09-03T22:28:00.887Z,12.10
2022-09-03T22:30:39.988Z,13.50
2022-09-03T22:33:20.259Z,14.80
2022-09-03T22:36:08.577Z,14.80
2022-09-03T22:38:56.903Z,17.00
2022-09-03T22:41:55.253Z,12.40
2022-09-03T22:44:43.206Z,13.30
2022-09-03T22:47:28.347Z,12.90
2022-09-03T22:50:10.962Z,13.60
2022-09-03T22:52:46.624Z,13.70
2022-09-03T22:55:21.362Z,13.30
2022-09-03T22:58:03.971Z,19.10
2022-09-03T23:00:42.402Z,12.70
2022-09-03T23:03:20.695Z,14.10
2022-09-03T23:05:57.747Z,13.80
2022-09-03T23:08:34.670Z,16.50
2022-09-03T23:11:11.281Z,15.50
2022-09-03T23:13:48.690Z,15.20
2022-09-03T23:16:30.364Z,12.70
2022-09-03T23:21:55.638Z,14.60
2022-09-03T23:24:34.101Z,12.50
2022-09-03T23:27:12.605Z,13.80
2022-09-03T23:29:49.514Z,13.80
2022-09-03T23:32:22.411Z,13.00
2022-09-03T23:34:56.180Z,15.20
2022-09-03T23:37:47.157Z,13.20
2022-09-03T23:40:45.396Z,11.30
2022-09-03T23:43:50.844Z,13.10
2022-09-03T23:46:28.283Z,12.60
2022-09-03T23:49:31.492Z,16.20
2022-09-03T23:52:31.177Z,11.40
2022-09-03T23:55:09.405Z,13.30
2022-09-03T23:57:51.070Z,11.80
